Tenten — V7YY7 — position and weather

sailwx.info

Track history (hours):
 
Tides and Currents Weather Stations Pressure Air Temp Water Temp Dewpoint Dewpoint Depression Visibility Wind Speed Wind Dir Waves Ship Positions

Tenten

Last reported at 2018-May-09 05:41 UTC. Time now 2018-May-22 17:09 UTC.
Position N 01°23' E 103°15'.
Warning: this ship's position is 13 days out of date.

Length 229 m; draft 14.6 m.

Type: Cargo ship. MMSI: 538004767.

Date/timePositionNaut miles runAvg speedWind from/ knotsBaromVisibWave heightAir tempDewpointWater temp
2018-May-09 05:41N 01°23' E 103°15'312.5
2018-May-09 05:28N 01°21' E 103°17'712.9
2018-May-09 04:58N 01°17' E 103°22'612.4
2018-May-09 04:28N 01°14' E 103°27'612.1
2018-May-09 03:59N 01°12' E 103°33'611.5
2018-May-09 03:30N 01°11' E 103°38'510.2
2018-May-09 03:00N 01°09' E 103°43'4 8.2
2018-May-09 02:30N 01°10' E 103°47'4 7.8
2018-May-09 02:00N 01°12' E 103°51'4 8.0
2018-May-09 01:30N 01°13' E 103°54'3 6.7
2018-May-09 01:00N 01°15' E 103°57'2 3.4
2018-May-09 00:30N 01°16' E 103°58'0 0.1
2018-May-08 23:50N 01°16' E 103°58'0 0.0
2018-May-08 23:28N 01°16' E 103°58'0 0.0
2018-May-08 22:58N 01°17' E 103°58'0 0.1
2018-May-08 22:28N 01°17' E 103°58'0 0.1
2018-May-08 21:55N 01°17' E 103°57'0 0.1
2018-May-08 21:29N 01°17' E 103°57'0 0.1
2018-May-08 20:55N 01°17' E 103°57'0 0.0
2018-May-08 20:13N 01°17' E 103°57'0 0.0
2018-May-08 19:49N 01°17' E 103°57'0 0.2
2018-May-08 19:29N 01°16' E 103°57'0 0.0
2018-May-08 18:52N 01°16' E 103°57'0 0.0
2018-May-08 18:16N 01°16' E 103°57'0 0.0
2018-May-08 17:49N 01°16' E 103°57'0 0.0
2018-May-08 17:25N 01°16' E 103°57'0 0.0
2018-May-08 16:52N 01°16' E 103°57'0 0.0
2018-May-08 16:19N 01°16' E 103°57'0 0.0
2018-May-08 15:43N 01°16' E 103°57'0 0.0
2018-May-08 15:29N 01°16' E 103°57'0 0.0
2018-May-08 14:59N 01°16' E 103°57'0 0.0
2018-May-08 14:19N 01°16' E 103°57'0 0.1
2018-May-08 13:44N 01°16' E 103°57'0 0.1
2018-May-08 13:11N 01°16' E 103°57'0 0.3
2018-May-08 12:58N 01°16' E 103°57'0 0.1
2018-May-08 12:28N 01°16' E 103°57'0 0.0
2018-May-08 11:58N 01°16' E 103°57'0 0.1
2018-May-08 11:23N 01°16' E 103°57'0 0.6
2018-May-08 10:59N 01°16' E 103°57'1 1.2
2018-May-08 10:30N 01°16' E 103°58'2 4.2
2018-May-08 10:00N 01°16' E 103°60'4 9.1
2018-May-08 09:30N 01°16' E 104°04'5 8.7
2018-May-08 08:55N 01°17' E 104°09'3 8.2
2018-May-08 08:30N 01°17' E 104°13'611.2
2018-May-08 07:59N 01°19' E 104°18'713.2
2018-May-08 07:29N 01°23' E 104°24'  
Track history (hours):
 
Tides and Currents Weather Stations Pressure Air Temp Water Temp Dewpoint Dewpoint Depression Visibility Wind Speed Wind Dir Waves Ship Positions

Tenten

Last reported at 2018-May-09 05:41 UTC. Time now 2018-May-22 17:09 UTC.
Position N 01°23' E 103°15'.
Warning: this ship's position is 13 days out of date.

Length 229 m; draft 14.6 m.

Type: Cargo ship. MMSI: 538004767.

Date/timePositionNaut miles runAvg speedWind from/ knotsBaromVisibWave heightAir tempDewpointWater temp
2018-May-09 05:41N 01°23' E 103°15'312.5
2018-May-09 05:28N 01°21' E 103°17'712.9
2018-May-09 04:58N 01°17' E 103°22'612.4
2018-May-09 04:28N 01°14' E 103°27'612.1
2018-May-09 03:59N 01°12' E 103°33'611.5
2018-May-09 03:30N 01°11' E 103°38'510.2
2018-May-09 03:00N 01°09' E 103°43'4 8.2
2018-May-09 02:30N 01°10' E 103°47'4 7.8
2018-May-09 02:00N 01°12' E 103°51'4 8.0
2018-May-09 01:30N 01°13' E 103°54'3 6.7
2018-May-09 01:00N 01°15' E 103°57'2 3.4
2018-May-09 00:30N 01°16' E 103°58'0 0.1
2018-May-08 23:50N 01°16' E 103°58'0 0.0
2018-May-08 23:28N 01°16' E 103°58'0 0.0
2018-May-08 22:58N 01°17' E 103°58'0 0.1
2018-May-08 22:28N 01°17' E 103°58'0 0.1
2018-May-08 21:55N 01°17' E 103°57'0 0.1
2018-May-08 21:29N 01°17' E 103°57'0 0.1
2018-May-08 20:55N 01°17' E 103°57'0 0.0
2018-May-08 20:13N 01°17' E 103°57'0 0.0
2018-May-08 19:49N 01°17' E 103°57'0 0.2
2018-May-08 19:29N 01°16' E 103°57'0 0.0
2018-May-08 18:52N 01°16' E 103°57'0 0.0
2018-May-08 18:16N 01°16' E 103°57'0 0.0
2018-May-08 17:49N 01°16' E 103°57'0 0.0
2018-May-08 17:25N 01°16' E 103°57'0 0.0
2018-May-08 16:52N 01°16' E 103°57'0 0.0
2018-May-08 16:19N 01°16' E 103°57'0 0.0
2018-May-08 15:43N 01°16' E 103°57'0 0.0
2018-May-08 15:29N 01°16' E 103°57'0 0.0
2018-May-08 14:59N 01°16' E 103°57'0 0.0
2018-May-08 14:19N 01°16' E 103°57'0 0.1
2018-May-08 13:44N 01°16' E 103°57'0 0.1
2018-May-08 13:11N 01°16' E 103°57'0 0.3
2018-May-08 12:58N 01°16' E 103°57'0 0.1
2018-May-08 12:28N 01°16' E 103°57'0 0.0
2018-May-08 11:58N 01°16' E 103°57'0 0.1
2018-May-08 11:23N 01°16' E 103°57'0 0.6
2018-May-08 10:59N 01°16' E 103°57'1 1.2
2018-May-08 10:30N 01°16' E 103°58'2 4.2
2018-May-08 10:00N 01°16' E 103°60'4 9.1
2018-May-08 09:30N 01°16' E 104°04'5 8.7
2018-May-08 08:55N 01°17' E 104°09'3 8.2
2018-May-08 08:30N 01°17' E 104°13'611.2
2018-May-08 07:59N 01°19' E 104°18'713.2
2018-May-08 07:29N 01°23' E 104°24'  

Dump ship's entire track history